Terminal Aerodrome Forecast
Issued by NWS

Home | Current Version | Previous Version | Text Only | Print | Product List | Glossary On
Versions: 1 2 3 4 5 6 7 8 9 10 11 12 13
591
FTUS46 KMTR 081138
TAFSNS
TAF
KSNS 081138Z 0812/0912 10013KT P6SM SKC
     FM082200 32005KT P6SM SKC
     FM090700 11007KT P6SM SKC=

USA.gov is the U.S. government's official web portal to all federal, state and local government web resources and services.